Knox, IN

12:10 AM CST on January 17, 2017 (GMT -0600)
Starke County

Weather History for KOXI - March, 2013

Change the Weather History Date:

Saturday, March 2, 2013

  Actual Average (KSBN) Record (KSBN)
Temperature  
Mean Temperature 29 °F -  
Max Temperature 32 °F 43 °F 68 °F (1974)
Min Temperature 26 °F 26 °F -4 °F (1913)
Degree Days  
Heating Degree Days 36    
Moisture  
Dew Point 21 °F    
Average Humidity 73    
Maximum Humidity 90    
Minimum Humidity 62    
Precipitation  
Precipitation 0.00 in - - ()
Sea Level Pressure  
Sea Level Pressure 30.10 in    
Wind  
Wind Speed 11 mph (North)    
Max Wind Speed 18 mph    
Max Gust Speed 23 mph    
Visibility 10 miles    
Events      
Averages and records for this station are not official NWS values.
T = Trace of Precipitation, MM = Missing Value Source: NWS Daily Summary

Daily Weather History Graph

Daily Weather History Graph

Search for Another Location

Airport or City:

Trip Planner

Search our weather history database for the weather conditions in past years. The results will help you decide how hot, cold, wet, or windy it might be!

Date:

Astronomy

Mar. 02, 2013 Rise Set
Actual Time 6:19 AM CST 5:38 PM CST
Civil Twilight 5:51 AM CST 6:06 PM CST
Nautical Twilight 5:19 AM CST 6:38 PM CST
Astronomical Twilight 4:47 AM CST 7:10 PM CST
Moon 11:22 PM CST (3/2) 8:43 AM CST (3/2)
Length of Visible Light 12h 15m
Length of Day
11h 19m
Waning Gibbous, 74% of the Moon is Illuminated
Mar 2
Waning Gibbous
Mar 4
Last Quarter
Mar 11
New
Mar 19
First Quarter
Mar 27
Full

Hourly Weather History & Observations

Time (CST) Temp. Windchill Dew Point Humidity Pressure Visibility Wind Dir Wind Speed Gust Speed Precip Events Conditions
12:15 AM 27.1 °F 16.9 °F 19.2 °F 72% 30.11 in 10.0 mi NE 11.5 mph - N/A   Overcast
12:35 AM 26.6 °F 17.5 °F 18.3 °F 71% 30.12 in 10.0 mi NE 9.2 mph - N/A   Overcast
1:15 AM 27.0 °F 18.7 °F 18.7 °F 71% 30.12 in 10.0 mi ENE 8.1 mph - N/A   Overcast
1:35 AM 27.0 °F 18.7 °F 18.3 °F 70% 30.11 in 10.0 mi ENE 8.1 mph - N/A   Overcast
1:55 AM 27.0 °F 18.0 °F 18.1 °F 69% 30.11 in 10.0 mi ENE 9.2 mph - N/A   Overcast
2:15 AM 26.6 °F 17.5 °F 17.6 °F 69% 30.10 in 10.0 mi ENE 9.2 mph - N/A   Overcast
2:55 AM 27.1 °F 20.7 °F 18.3 °F 69% 30.10 in 10.0 mi East 5.8 mph - N/A   Overcast
3:15 AM 27.1 °F 21.8 °F 18.0 °F 68% 30.10 in 10.0 mi NE 4.6 mph - N/A   Overcast
3:35 AM 27.0 °F 21.6 °F 18.9 °F 72% 30.10 in 10.0 mi NNE 4.6 mph - N/A   Overcast
3:55 AM 27.0 °F 19.5 °F 19.6 °F 74% 30.10 in 10.0 mi North 6.9 mph - N/A   Overcast
4:15 AM 27.1 °F 20.7 °F 19.4 °F 73% 30.10 in 10.0 mi North 5.8 mph - N/A   Overcast
4:35 AM 27.1 °F 20.7 °F 19.2 °F 72% 30.10 in 10.0 mi North 5.8 mph - N/A   Overcast
4:55 AM 27.0 °F 18.7 °F 19.6 °F 74% 30.10 in 10.0 mi North 8.1 mph - N/A   Overcast
5:15 AM 27.0 °F 18.7 °F 18.9 °F 72% 30.10 in 10.0 mi North 8.1 mph - N/A   Overcast
5:35 AM 26.8 °F 17.7 °F 18.1 °F 70% 30.10 in 10.0 mi North 9.2 mph - N/A   Overcast
5:55 AM 26.6 °F 19.1 °F 18.3 °F 71% 30.10 in 10.0 mi North 6.9 mph - N/A   Overcast
6:15 AM 26.8 °F 18.5 °F 19.6 °F 74% 30.10 in 10.0 mi North 8.1 mph - N/A   Overcast
6:55 AM 26.8 °F 16.5 °F 21.7 °F 81% 30.11 in 10.0 mi NNE 11.5 mph - N/A   Overcast
7:15 AM 26.6 °F 15.2 °F 21.4 °F 81% 30.12 in 10.0 mi North 13.8 mph - N/A   Overcast
7:35 AM 26.6 °F 14.3 °F 20.7 °F 78% 30.12 in 10.0 mi North 16.1 mph - N/A   Overcast
7:55 AM 26.8 °F 14.5 °F 19.9 °F 75% 30.12 in 10.0 mi North 16.1 mph - N/A   Overcast
8:15 AM 27.7 °F 16.6 °F 19.2 °F 71% 30.12 in 10.0 mi North 13.8 mph - N/A   Overcast
8:35 AM 28.2 °F 16.3 °F 19.0 °F 68% 30.12 in 10.0 mi NNE 16.1 mph 19.6 mph N/A   Overcast
8:55 AM 29.1 °F 18.4 °F 19.6 °F 68% 30.12 in 10.0 mi North 13.8 mph - N/A   Overcast
9:15 AM 29.1 °F 16.7 °F 19.8 °F 68% 30.13 in 10.0 mi North 18.4 mph - N/A   Overcast
9:35 AM 28.4 °F 17.0 °F 19.6 °F 70% 30.13 in 10.0 mi North 15.0 mph 21.9 mph N/A   Overcast
9:55 AM 28.6 °F 18.2 °F 19.8 °F 70% 30.13 in 10.0 mi North 12.7 mph 18.4 mph N/A   Overcast
10:15 AM 28.8 °F 18.4 °F 19.8 °F 69% 30.12 in 10.0 mi North 12.7 mph 19.6 mph N/A   Overcast
10:35 AM 29.1 °F 19.4 °F 19.8 °F 68% 30.12 in 10.0 mi NNE 11.5 mph - N/A   Overcast
11:15 AM 31.6 °F 23.1 °F 20.3 °F 63% 30.12 in 10.0 mi North 10.4 mph - N/A   Scattered Clouds
11:35 AM 32.2 °F 22.3 °F 20.5 °F 62% 30.11 in 10.0 mi North 13.8 mph 20.7 mph N/A   Mostly Cloudy
11:55 AM 32.2 °F 23.2 °F 20.8 °F 63% 30.11 in 10.0 mi NNE 11.5 mph - N/A   Overcast
12:15 PM 31.8 °F 23.3 °F 20.3 °F 62% 30.10 in 10.0 mi North 10.4 mph - N/A   Overcast
12:35 PM 32.0 °F 21.6 °F 21.0 °F 64% 30.10 in 10.0 mi North 15.0 mph 19.6 mph N/A   Overcast
12:55 PM 32.0 °F 22.1 °F 21.4 °F 65% 30.09 in 10.0 mi North 13.8 mph - N/A   Overcast
1:15 PM 31.8 °F 22.8 °F 21.6 °F 66% 30.09 in 10.0 mi NNW 11.5 mph - N/A   Overcast
1:35 PM 31.8 °F 21.0 °F 21.6 °F 66% 30.08 in 10.0 mi North 16.1 mph 19.6 mph N/A   Mostly Cloudy
1:55 PM 32.2 °F 21.4 °F 21.0 °F 63% 30.08 in 10.0 mi North 16.1 mph - N/A   Mostly Cloudy
2:15 PM 32.4 °F 21.7 °F 21.0 °F 63% 30.08 in 10.0 mi North 16.1 mph 20.7 mph N/A   Scattered Clouds
2:55 PM 31.8 °F 21.4 °F 21.6 °F 66% 30.08 in 10.0 mi NNW 15.0 mph - N/A   Mostly Cloudy
3:15 PM 31.3 °F 19.9 °F 21.4 °F 67% 30.08 in 10.0 mi North 17.3 mph 21.9 mph N/A   Mostly Cloudy
3:35 PM 31.6 °F 22.6 °F 21.4 °F 66% 30.09 in 10.0 mi North 11.5 mph 21.9 mph N/A   Mostly Cloudy
3:55 PM 31.1 °F 19.7 °F 20.8 °F 66% 30.09 in 10.0 mi North 17.3 mph - N/A   Overcast
4:15 PM 30.6 °F 20.7 °F 19.9 °F 65% 30.09 in 10.0 mi North 12.7 mph 18.4 mph N/A   Overcast
4:35 PM 30.4 °F 21.5 °F 21.2 °F 69% 30.09 in 10.0 mi North 10.4 mph - N/A   Overcast
4:55 PM 30.0 °F 20.5 °F 21.9 °F 72% 30.10 in 10.0 mi North 11.5 mph - N/A   Overcast
5:15 PM 30.0 °F 21.1 °F 22.1 °F 72% 30.10 in 10.0 mi NNW 10.4 mph 16.1 mph N/A   Overcast
5:35 PM 29.5 °F 19.9 °F 25.0 °F 83% 30.10 in 7.0 mi NW 11.5 mph - N/A   Overcast
5:55 PM 28.9 °F 17.7 °F 26.4 °F 90% 30.10 in 7.0 mi NNW 15.0 mph 19.6 mph N/A   Overcast
6:15 PM 28.6 °F 18.7 °F 25.7 °F 89% 30.11 in 10.0 mi NW 11.5 mph - N/A   Overcast
6:35 PM 28.4 °F 17.5 °F 25.7 °F 90% 30.11 in 10.0 mi NW 13.8 mph - N/A   Overcast
6:55 PM 28.4 °F 17.0 °F 25.3 °F 88% 30.10 in 10.0 mi NNW 15.0 mph 18.4 mph N/A   Overcast
7:15 PM 28.2 °F 16.3 °F 24.8 °F 87% 30.10 in 10.0 mi NNW 16.1 mph - N/A   Overcast
7:35 PM 28.2 °F 17.2 °F 24.3 °F 85% 30.11 in 10.0 mi NNW 13.8 mph 20.7 mph N/A   Overcast
8:15 PM 28.2 °F 16.8 °F 22.5 °F 79% 30.11 in 10.0 mi NNW 15.0 mph 18.4 mph N/A   Overcast
8:35 PM 28.2 °F 17.2 °F 21.6 °F 76% 30.11 in 10.0 mi NW 13.8 mph 18.4 mph N/A   Overcast
8:55 PM 28.0 °F 17.0 °F 21.4 °F 76% 30.11 in 10.0 mi NW 13.8 mph 23.0 mph N/A   Overcast
9:15 PM 27.5 °F 15.9 °F 21.4 °F 78% 30.11 in 10.0 mi NW 15.0 mph 20.7 mph N/A   Overcast
9:35 PM 27.5 °F 15.9 °F 21.2 °F 77% 30.11 in 10.0 mi WNW 15.0 mph 20.7 mph N/A   Overcast
9:55 PM 27.3 °F 15.6 °F 21.0 °F 77% 30.11 in 10.0 mi WNW 15.0 mph - N/A   Overcast
10:15 PM 27.3 °F 17.1 °F 20.7 °F 76% 30.11 in 10.0 mi NW 11.5 mph - N/A   Overcast
10:35 PM 27.3 °F 16.1 °F 20.8 °F 77% 30.11 in 10.0 mi WNW 13.8 mph 19.6 mph N/A   Overcast
10:55 PM 27.3 °F 16.6 °F 21.0 °F 77% 30.10 in 10.0 mi WNW 12.7 mph - N/A   Overcast
11:15 PM 27.3 °F 15.6 °F 21.4 °F 78% 30.10 in 10.0 mi WNW 15.0 mph 19.6 mph N/A   Overcast
11:35 PM 27.5 °F 16.3 °F 21.6 °F 78% 30.10 in 10.0 mi WNW 13.8 mph - N/A   Overcast
11:55 PM 27.1 °F 15.4 °F 22.3 °F 82% 30.10 in 10.0 mi WNW 15.0 mph - N/A   Overcast